Humidity-temperature Sensor

Selected Measurement Type: Air Temperature

 
Air Temperature [°C]     6 entries per hour
Showing data from 8/26/2017 (00:00:00 Z) to 8/19/2017 (00:01:00 Z)
Previous Next [ Day | 3-Days | 7-Days ]
First Last
Prev [ Day | 3-Days | 7-Days ] Next
First Last

Start Time:     :
End Time:     :     
Time (in GMT) :00 :50 :40 :30 :20 :10
Previous Next [ Day | 3-Days | 7-Days ]
First Last
Prev [ Day | 3-Days | 7-Days ] Next
First Last


123 => good data
MM => data is determined as missing
-- => data not received/configured
Back to Top Back to Top
8/26/2017 00:00 to 23:10 26.56 26.39 26.16 25.96 25.44 25.36
8/25/2017 23:00 to 22:10 25.44 25.71 26.32 28.20 28.07 27.99
8/25/2017 22:00 to 21:10 28.08 28.24 28.35 28.26 28.24 28.00
8/25/2017 21:00 to 20:10 27.82 27.81 27.98 27.99 27.85 27.87
8/25/2017 20:00 to 19:10 27.66 27.47 27.56 27.31 27.00 27.05
8/25/2017 19:00 to 18:10 27.30 27.09 26.73 26.42 26.15 25.81
8/25/2017 18:00 to 17:10 25.63 25.57 25.42 25.26 25.22 25.17
8/25/2017 17:00 to 16:10 25.02 24.71 24.58 24.57 24.61 24.67
8/25/2017 16:00 to 15:10 24.53 24.66 24.75 24.97 24.98 25.03
8/25/2017 15:00 to 14:10 25.23 25.09 25.00 24.98 25.10 25.63
8/25/2017 14:00 to 13:10 26.07 26.87 27.33 27.31 27.42 27.22
8/25/2017 13:00 to 12:10 27.21 26.95 26.91 27.11 26.99 26.97
8/25/2017 12:00 to 11:10 26.91 26.85 27.04 27.34 27.26 27.65
8/25/2017 11:00 to 10:10 28.33 28.39 28.38 28.42 28.32 28.36
8/25/2017 10:00 to 9:10 28.19 28.28 28.24 28.36 28.22 28.32
8/25/2017 09:00 to 8:10 28.40 28.34 28.39 28.55 28.57 28.54
8/25/2017 08:00 to 7:10 28.51 28.62 28.54 28.53 28.66 28.40
8/25/2017 07:00 to 6:10 28.42 28.47 28.38 28.31 28.39 28.35
8/25/2017 06:00 to 5:10 28.45 28.42 28.34 28.54 28.35 28.46
8/25/2017 05:00 to 4:10 28.34 28.34 28.31 28.31 28.28 28.30
8/25/2017 04:00 to 3:10 28.28 28.25 28.33 28.59 28.54 28.63
8/25/2017 03:00 to 2:10 28.42 28.28 28.14 28.09 27.95 27.68
8/25/2017 02:00 to 1:10 27.70 27.52 27.40 28.56 28.46 28.64
8/25/2017 01:00 to 0:10 29.06 29.11 28.84 28.92 28.87 28.86
8/25/2017 00:00 to 23:10 28.79 28.81 28.80 28.88 28.77 28.90
8/24/2017 23:00 to 22:10 28.88 28.88 28.66 28.49 28.14 27.37
8/24/2017 22:00 to 21:10 -- -- -- -- -- --
8/24/2017 21:00 to 20:10 28.70 28.57 28.70 28.77 28.81 28.77
8/24/2017 20:00 to 19:10 -- -- -- -- -- --
8/24/2017 19:00 to 18:10 28.28 28.11 28.18 28.18 28.51 28.31
8/24/2017 18:00 to 17:10 28.14 27.79 27.32 26.76 27.14 26.73
8/24/2017 17:00 to 16:10 26.56 25.67 26.33 26.54 26.45 26.45
8/24/2017 16:00 to 15:10 27.59 27.49 27.21 26.94 27.22 27.85
8/24/2017 15:00 to 14:10 28.14 28.01 27.91 27.93 27.90 27.91
8/24/2017 14:00 to 13:10 27.75 27.71 27.60 27.43 27.27 27.15
8/24/2017 13:00 to 12:10 27.08 27.35 28.34 28.25 28.29 28.29
8/24/2017 12:00 to 11:10 28.31 28.40 28.34 28.32 28.36 28.39
8/24/2017 11:00 to 10:10 28.45 28.33 28.50 28.40 28.43 28.46
8/24/2017 10:00 to 9:10 28.47 28.49 28.55 28.51 28.50 28.52
8/24/2017 09:00 to 8:10 28.50 28.52 28.55 28.56 28.44 28.46
8/24/2017 08:00 to 7:10 28.49 28.40 28.32 28.43 28.75 28.79
8/24/2017 07:00 to 6:10 28.79 28.76 28.72 28.91 28.21 27.75
8/24/2017 06:00 to 5:10 27.57 27.29 27.13 27.08 27.43 28.24
8/24/2017 05:00 to 4:10 29.19 29.44 29.58 29.37 29.39 29.17
8/24/2017 04:00 to 3:10 29.05 28.23 27.85 27.64 27.86 28.12
8/24/2017 03:00 to 2:10 28.69 29.18 29.11 28.96 29.18 29.00
8/24/2017 02:00 to 1:10 29.03 28.86 28.97 28.93 28.85 28.90
8/24/2017 01:00 to 0:10 28.99 28.88 28.98 28.91 28.92 28.91
8/24/2017 00:00 to 23:10 28.88 28.87 28.88 28.77 29.03 28.94
8/23/2017 23:00 to 22:10 28.82 28.77 28.78 28.81 28.77 28.84
8/23/2017 22:00 to 21:10 28.89 28.77 28.91 29.00 28.93 28.88
8/23/2017 21:00 to 20:10 28.80 28.95 28.99 28.92 28.82 28.92
8/23/2017 20:00 to 19:10 28.91 28.95 28.96 29.03 29.11 29.10
8/23/2017 19:00 to 18:10 29.20 29.20 29.07 29.18 29.09 28.77
8/23/2017 18:00 to 17:10 29.02 28.86 28.74 28.57 28.50 28.54
8/23/2017 17:00 to 16:10 28.50 28.42 28.42 28.36 28.38 28.47
8/23/2017 16:00 to 15:10 28.40 28.43 28.43 28.45 28.32 28.45
8/23/2017 15:00 to 14:10 28.40 27.92 27.96 28.00 27.95 27.62
8/23/2017 14:00 to 13:10 27.68 28.27 28.05 28.21 27.66 27.98
8/23/2017 13:00 to 12:10 28.25 28.51 28.42 28.49 28.47 28.58
8/23/2017 12:00 to 11:10 28.56 28.59 28.67 28.77 28.66 28.63
8/23/2017 11:00 to 10:10 28.61 28.70 28.75 28.68 28.75 28.77
8/23/2017 10:00 to 9:10 28.98 28.77 28.87 28.86 28.77 28.77
8/23/2017 09:00 to 8:10 28.78 28.77 28.73 28.78 28.80 29.01
8/23/2017 08:00 to 7:10 28.84 28.91 28.96 28.95 28.93 28.86
8/23/2017 07:00 to 6:10 28.89 28.94 29.02 28.82 28.77 28.85
8/23/2017 06:00 to 5:10 28.82 28.74 28.86 28.96 28.85 29.02
8/23/2017 05:00 to 4:10 29.47 29.45 29.81 29.67 29.89 29.69
8/23/2017 04:00 to 3:10 29.60 29.78 29.71 29.75 29.86 29.45
8/23/2017 03:00 to 2:10 29.43 29.16 29.39 29.61 29.75 29.57
8/23/2017 02:00 to 1:10 29.67 29.45 29.30 29.52 29.48 29.46
8/23/2017 01:00 to 0:10 29.56 29.63 29.41 29.43 29.49 29.44
8/23/2017 00:00 to 23:10 29.38 29.28 29.18 29.06 29.15 29.05
8/22/2017 23:00 to 22:10 29.15 29.09 29.16 29.11 29.24 29.03
8/22/2017 22:00 to 21:10 29.09 29.15 29.24 28.96 28.91 28.92
8/22/2017 21:00 to 20:10 -- -- -- -- -- --
8/22/2017 20:00 to 19:10 -- -- -- -- -- --
8/22/2017 19:00 to 18:10 28.88 28.47 28.51 28.31 28.36 28.42
8/22/2017 18:00 to 17:10 28.27 28.30 28.30 28.32 28.31 28.19
8/22/2017 17:00 to 16:10 28.26 28.34 28.21 28.14 28.29 28.10
8/22/2017 16:00 to 15:10 28.17 28.10 28.26 28.22 28.21 28.24
8/22/2017 15:00 to 14:10 28.05 28.10 28.08 28.13 28.08 28.12
8/22/2017 14:00 to 13:10 28.15 28.11 28.13 28.18 28.17 28.11
8/22/2017 13:00 to 12:10 28.17 28.24 28.17 28.11 28.25 28.07
8/22/2017 12:00 to 11:10 27.95 27.99 27.95 28.09 28.15 28.23
8/22/2017 11:00 to 10:10 28.30 28.38 28.52 28.66 28.72 28.71
8/22/2017 10:00 to 9:10 28.45 28.60 28.59 28.63 28.49 28.49
8/22/2017 09:00 to 8:10 28.45 28.53 28.46 28.54 28.34 28.51
8/22/2017 08:00 to 7:10 28.46 28.50 28.44 28.56 28.68 28.65
8/22/2017 07:00 to 6:10 28.53 28.46 28.46 28.51 28.63 28.61
8/22/2017 06:00 to 5:10 28.58 28.58 28.56 28.62 28.04 28.38
8/22/2017 05:00 to 4:10 28.42 28.44 28.41 28.42 28.30 28.32
8/22/2017 04:00 to 3:10 28.35 28.25 28.46 28.47 28.41 28.43
8/22/2017 03:00 to 2:10 28.28 28.18 28.11 28.17 28.17 28.17
8/22/2017 02:00 to 1:10 28.23 28.01 28.09 28.16 28.09 28.20
8/22/2017 01:00 to 0:10 28.13 28.09 28.13 28.04 28.00 27.40
8/22/2017 00:00 to 23:10 26.48 26.34 26.21 25.93 26.04 26.08
8/21/2017 23:00 to 22:10 26.23 26.32 26.40 26.20 26.65 27.01
8/21/2017 22:00 to 21:10 27.47 27.33 27.29 27.18 26.78 26.58
8/21/2017 21:00 to 20:10 26.72 26.34 26.38 26.44 26.78 26.61
8/21/2017 20:00 to 19:10 -- -- -- -- -- --
8/21/2017 19:00 to 18:10 27.05 27.07 27.04 27.11 26.91 26.43
8/21/2017 18:00 to 17:10 26.52 27.00 27.20 27.80 27.92 27.99
8/21/2017 17:00 to 16:10 27.74 27.72 27.59 27.72 27.11 27.23
8/21/2017 16:00 to 15:10 27.69 27.84 28.00 27.78 27.77 27.74
8/21/2017 15:00 to 14:10 27.79 27.70 27.89 27.79 27.81 27.96
8/21/2017 14:00 to 13:10 28.00 28.74 28.81 28.77 28.78 28.84
8/21/2017 13:00 to 12:10 28.87 28.77 28.77 28.84 28.91 28.89
8/21/2017 12:00 to 11:10 28.94 28.94 28.90 29.02 28.96 28.97
8/21/2017 11:00 to 10:10 29.10 29.00 29.08 29.13 29.07 29.25
8/21/2017 10:00 to 9:10 29.09 29.20 29.13 29.13 29.24 29.27
8/21/2017 09:00 to 8:10 29.16 28.94 29.13 29.15 29.11 29.13
8/21/2017 08:00 to 7:10 29.14 29.07 29.21 29.17 29.19 29.17
8/21/2017 07:00 to 6:10 29.21 29.22 29.17 29.07 29.10 29.18
8/21/2017 06:00 to 5:10 29.20 29.32 29.39 29.24 29.29 29.18
8/21/2017 05:00 to 4:10 29.20 29.19 29.14 29.33 29.33 29.21
8/21/2017 04:00 to 3:10 29.14 29.13 29.48 29.40 29.35 29.56
8/21/2017 03:00 to 2:10 29.46 29.53 29.43 29.42 29.28 29.46
8/21/2017 02:00 to 1:10 29.49 29.35 29.45 29.45 29.42 29.50
8/21/2017 01:00 to 0:10 29.55 29.40 29.31 29.41 29.50 29.39
8/21/2017 00:00 to 23:10 29.32 29.40 29.38 29.27 29.19 29.28
8/20/2017 23:00 to 22:10 29.39 29.27 29.30 29.36 29.33 29.41
8/20/2017 22:00 to 21:10 29.35 29.15 29.28 29.11 29.05 29.09
8/20/2017 21:00 to 20:10 29.12 29.16 29.16 28.99 28.98 28.90
8/20/2017 20:00 to 19:10 29.22 29.27 29.26 29.25 29.29 29.26
8/20/2017 19:00 to 18:10 29.16 28.39 28.22 27.91 27.71 27.73
8/20/2017 18:00 to 17:10 27.30 27.16 27.27 27.22 27.32 27.52
8/20/2017 17:00 to 16:10 27.32 27.21 27.07 27.18 26.93 26.75
8/20/2017 16:00 to 15:10 26.56 26.55 26.49 26.26 26.08 26.60
8/20/2017 15:00 to 14:10 26.26 26.29 26.35 25.99 25.79 25.67
8/20/2017 14:00 to 13:10 25.58 25.44 25.26 24.94 25.57 25.50
8/20/2017 13:00 to 12:10 26.84 27.07 27.11 27.04 26.86 26.65
8/20/2017 12:00 to 11:10 26.42 25.51 25.77 26.45 27.18 28.57
8/20/2017 11:00 to 10:10 28.53 28.53 28.75 28.59 28.41 27.82
8/20/2017 10:00 to 9:10 28.65 29.24 29.11 29.11 29.07 29.08
8/20/2017 09:00 to 8:10 29.07 29.07 29.04 29.05 28.99 29.07
8/20/2017 08:00 to 7:10 28.61 28.43 28.09 28.10 28.43 28.56
8/20/2017 07:00 to 6:10 29.25 29.26 29.32 29.29 29.25 29.24
8/20/2017 06:00 to 5:10 29.22 29.23 29.20 29.17 29.17 29.24
8/20/2017 05:00 to 4:10 29.16 29.06 28.72 28.52 28.36 28.34
8/20/2017 04:00 to 3:10 28.13 27.87 27.53 27.34 26.69 26.40
8/20/2017 03:00 to 2:10 26.17 25.69 25.84 26.08 26.61 27.92
8/20/2017 02:00 to 1:10 27.91 28.04 27.76 27.71 27.75 27.81
8/20/2017 01:00 to 0:10 27.80 27.97 27.75 27.64 27.63 27.78
8/20/2017 00:00 to 23:10 27.81 27.69 27.71 27.70 27.44 27.18
8/19/2017 23:00 to 22:10 27.18 27.15 26.87 27.74 28.04 27.84
8/19/2017 22:00 to 21:10 27.56 27.12 27.49 27.49 28.37 28.14
8/19/2017 21:00 to 20:10 28.03 27.91 27.66 27.45 27.08 26.62
8/19/2017 20:00 to 19:10 27.62 27.82 28.01 28.12 28.27 27.91
8/19/2017 19:00 to 18:10 27.70 27.52 27.30 27.56 27.44 27.25
8/19/2017 18:00 to 17:10 27.05 26.73 26.58 26.66 26.82 26.55
8/19/2017 17:00 to 16:10 26.29 27.65 27.75 27.44 27.76 27.80
8/19/2017 16:00 to 15:10 27.81 27.77 27.85 28.34 28.38 28.29
8/19/2017 15:00 to 14:10 28.25 28.03 28.35 28.29 28.32 28.49
8/19/2017 14:00 to 13:10 28.41 28.41 28.48 28.42 28.35 28.48
8/19/2017 13:00 to 12:10 28.40 28.43 28.46 28.20 28.13 28.00
8/19/2017 12:00 to 11:10 28.02 27.88 27.83 28.03 28.01 28.02
8/19/2017 11:00 to 10:10 28.17 28.28 28.24 28.17 28.31 28.34
8/19/2017 10:00 to 9:10 28.30 28.42 28.43 28.33 28.10 27.89
8/19/2017 09:00 to 8:10 27.97 27.91 28.59 28.48 28.52 28.53
8/19/2017 08:00 to 7:10 28.71 28.63 28.52 28.48 28.48 28.53
8/19/2017 07:00 to 6:10 28.41 28.32 28.27 28.33 28.17 28.19
8/19/2017 06:00 to 5:10 28.20 28.48 28.80 28.77 28.72 28.74
8/19/2017 05:00 to 4:10 28.96 29.06 29.14 29.06 28.92 28.82
8/19/2017 04:00 to 3:10 29.33 28.74 28.77 29.04 28.78 28.85
8/19/2017 03:00 to 2:10 28.85 28.84 28.85 28.77 28.73 28.71
8/19/2017 02:00 to 1:10 28.63 28.58 28.56 28.55 28.65 28.54
8/19/2017 01:00 to 0:10 28.47 28.56 28.51 28.50 28.49 28.50